Time;durP1;ratioP1;P1;durP2;ratioP2;P2;SDS_P1;SDS_P2;PMS_P1;PMS_P2;Temp;Humidity;BMP_temperature;BMP_pressure;BME280_temperature;BME280_humidity;BME280_pressure;Samples;Min_cycle;Max_cycle;Signal;HPM_P1;HPM_P2
2023/07/25 00:00:10;;;;;;;4.13;2.20;;;15.60;99.90;;;;;;4995018;28;20458;-49
2023/07/25 00:02:36;;;;;;;8.13;1.73;;;15.60;99.90;;;;;;4995996;28;20044;-52
2023/07/25 00:05:02;;;;;;;5.47;1.80;;;15.60;99.90;;;;;;4996227;28;20113;-50
2023/07/25 00:07:28;;;;;;;4.35;1.45;;;15.60;99.90;;;;;;4997603;28;20116;-51
2023/07/25 00:09:54;;;;;;;4.20;1.70;;;15.60;99.90;;;;;;4995566;28;20030;-50
2023/07/25 00:12:19;;;;;;;3.45;1.38;;;15.60;99.90;;;;;;4997160;28;20026;-50
2023/07/25 00:14:45;;;;;;;7.22;1.70;;;15.60;99.90;;;;;;4996554;28;20040;-50
2023/07/25 00:17:10;;;;;;;4.18;1.55;;;15.60;99.90;;;;;;4996222;28;20045;-48
2023/07/25 00:19:36;;;;;;;6.10;1.63;;;15.60;99.90;;;;;;4996893;28;20065;-51
2023/07/25 00:22:02;;;;;;;3.72;1.50;;;15.60;99.90;;;;;;4996966;28;20081;-52
2023/07/25 00:24:27;;;;;;;3.60;1.30;;;15.60;99.90;;;;;;4996645;28;20058;-50
2023/07/25 00:26:53;;;;;;;3.92;1.67;;;15.50;99.90;;;;;;4996772;28;20062;-50
2023/07/25 00:29:18;;;;;;;3.90;1.55;;;15.50;99.90;;;;;;4995323;28;20062;-52
2023/07/25 00:31:44;;;;;;;3.35;1.40;;;15.50;99.90;;;;;;4995868;28;20032;-52
2023/07/25 00:34:10;;;;;;;3.33;1.50;;;15.50;99.90;;;;;;4996036;28;20030;-50
2023/07/25 00:36:35;;;;;;;4.10;1.50;;;15.50;99.90;;;;;;4995050;28;20026;-50
2023/07/25 00:39:01;;;;;;;6.22;1.70;;;15.50;99.90;;;;;;4994988;28;20030;-51
2023/07/25 00:41:26;;;;;;;3.58;1.52;;;15.50;99.90;;;;;;4995755;28;20026;-51
2023/07/25 00:43:52;;;;;;;3.22;1.45;;;15.50;99.90;;;;;;4995588;28;20030;-52
2023/07/25 00:46:18;;;;;;;3.88;1.58;;;15.40;99.90;;;;;;4995588;28;20030;-51
2023/07/25 00:48:44;;;;;;;2.90;1.45;;;15.40;99.90;;;;;;4994837;28;20038;-48
2023/07/25 00:51:10;;;;;;;4.60;1.90;;;15.40;99.90;;;;;;4994825;28;20479;-49
2023/07/25 00:53:36;;;;;;;5.47;2.58;;;15.40;99.90;;;;;;4995639;28;20054;-51
2023/07/25 00:56:03;;;;;;;7.65;3.05;;;15.40;99.90;;;;;;4994496;28;20040;-51
2023/07/25 00:58:29;;;;;;;6.43;3.15;;;15.40;99.90;;;;;;4995761;28;20030;-50
2023/07/25 01:01:05;;;;;;;4.00;2.53;;;15.30;99.90;;;;;;4994405;28;20399;-52
2023/07/25 01:03:33;;;;;;;3.85;1.75;;;15.30;99.90;;;;;;4994942;28;20041;-50
2023/07/25 01:06:04;;;;;;;6.90;1.92;;;15.30;99.90;;;;;;4994684;28;20037;-51
2023/07/25 01:08:30;;;;;;;3.63;1.88;;;15.30;99.90;;;;;;4995455;28;20669;-50
2023/07/25 01:10:56;;;;;;;2.95;1.70;;;15.30;99.90;;;;;;4995592;28;20042;-51
2023/07/25 01:13:22;;;;;;;4.47;1.70;;;15.30;99.90;;;;;;4995257;28;20034;-51
2023/07/25 01:15:50;;;;;;;3.88;1.67;;;15.20;99.90;;;;;;4993438;28;20030;-51
2023/07/25 01:18:16;;;;;;;3.55;1.60;;;15.20;99.90;;;;;;4993952;28;20523;-49
2023/07/25 01:20:42;;;;;;;3.60;1.42;;;15.20;99.90;;;;;;4993709;28;20030;-49
2023/07/25 01:23:10;;;;;;;5.65;1.85;;;15.20;99.90;;;;;;4993406;28;20059;-52
2023/07/25 01:25:36;;;;;;;4.88;1.67;;;15.20;99.90;;;;;;4993579;28;20089;-51
2023/07/25 01:28:02;;;;;;;7.32;1.70;;;15.10;99.90;;;;;;4992995;28;20510;-54
2023/07/25 01:30:28;;;;;;;2.95;1.60;;;15.10;99.90;;;;;;4993416;28;20026;-54
2023/07/25 01:32:54;;;;;;;2.80;1.40;;;15.10;99.90;;;;;;4993177;28;20097;-49
2023/07/25 01:35:20;;;;;;;4.30;1.50;;;15.10;99.90;;;;;;4993156;28;20054;-52
2023/07/25 01:37:46;;;;;;;5.72;1.63;;;15.10;99.90;;;;;;4994607;28;20040;-51
2023/07/25 01:40:13;;;;;;;3.83;1.65;;;15.00;99.90;;;;;;4993687;28;20410;-49
2023/07/25 01:42:38;;;;;;;6.22;1.88;;;15.00;99.90;;;;;;4993208;28;20030;-48
2023/07/25 01:45:05;;;;;;;5.65;1.90;;;15.00;99.90;;;;;;4994900;28;20443;-51
2023/07/25 01:47:30;;;;;;;4.00;1.52;;;14.90;99.90;;;;;;4994051;28;20061;-51
2023/07/25 01:49:56;;;;;;;4.28;1.83;;;14.90;99.90;;;;;;4994804;28;20494;-54
2023/07/25 01:52:22;;;;;;;4.68;1.60;;;14.90;99.90;;;;;;4994411;28;20765;-51
2023/07/25 01:54:52;;;;;;;4.85;1.70;;;14.90;99.90;;;;;;4993112;28;20033;-54
2023/07/25 01:57:18;;;;;;;5.57;1.48;;;14.90;99.90;;;;;;4994660;28;20104;-51
2023/07/25 01:59:43;;;;;;;4.28;1.85;;;14.80;99.90;;;;;;4993325;28;20490;-54
2023/07/25 02:02:09;;;;;;;4.38;2.00;;;14.80;99.90;;;;;;4992587;28;20051;-54
2023/07/25 02:04:35;;;;;;;9.70;1.98;;;14.70;99.90;;;;;;4992519;28;20034;-53
2023/07/25 02:07:00;;;;;;;4.78;1.70;;;14.70;99.90;;;;;;4993117;28;20098;-53
2023/07/25 02:09:26;;;;;;;5.63;1.98;;;14.70;99.90;;;;;;4993357;28;20054;-53
2023/07/25 02:11:51;;;;;;;2.45;1.48;;;14.70;99.90;;;;;;4994233;28;20121;-53
2023/07/25 02:14:17;;;;;;;5.47;2.15;;;14.70;99.90;;;;;;4992751;28;20084;-53
2023/07/25 02:16:43;;;;;;;4.70;1.92;;;14.70;99.90;;;;;;4993113;28;20034;-51
2023/07/25 02:19:09;;;;;;;3.28;1.38;;;14.60;99.90;;;;;;4993087;28;20482;-53
2023/07/25 02:21:34;;;;;;;4.57;1.80;;;14.60;99.90;;;;;;4992744;28;20066;-52
2023/07/25 02:24:00;;;;;;;4.25;1.90;;;14.60;99.90;;;;;;4992716;28;20376;-49
2023/07/25 02:26:26;;;;;;;3.55;1.70;;;14.50;99.90;;;;;;4992451;28;20121;-52
2023/07/25 02:28:52;;;;;;;8.20;1.80;;;14.40;99.90;;;;;;4994192;28;20033;-53
2023/07/25 02:31:18;;;;;;;5.07;2.20;;;14.40;99.90;;;;;;4994057;28;20105;-52
2023/07/25 02:33:43;;;;;;;4.47;1.67;;;14.40;99.90;;;;;;4993611;28;20038;-51
2023/07/25 02:36:09;;;;;;;6.18;2.13;;;14.30;99.90;;;;;;4992474;28;20030;-54
2023/07/25 02:38:36;;;;;;;4.25;1.70;;;14.20;99.90;;;;;;4994046;28;20035;-52
2023/07/25 02:41:02;;;;;;;4.43;1.90;;;14.20;99.90;;;;;;4996527;28;20026;-52
2023/07/25 02:43:27;;;;;;;3.28;1.90;;;14.10;99.90;;;;;;4996845;28;20037;-52
2023/07/25 02:45:53;;;;;;;4.32;1.58;;;14.10;99.90;;;;;;4996283;28;20039;-52
2023/07/25 02:48:20;;;;;;;5.97;2.40;;;14.00;99.90;;;;;;4997334;28;20026;-53
2023/07/25 02:50:45;;;;;;;5.35;1.98;;;14.00;99.90;;;;;;4997053;28;20053;-53
2023/07/25 02:53:11;;;;;;;6.32;2.42;;;14.00;99.90;;;;;;4996022;28;20046;-51
2023/07/25 02:55:37;;;;;;;4.07;2.20;;;13.90;99.90;;;;;;4997117;28;20394;-53
2023/07/25 02:58:03;;;;;;;5.00;2.10;;;13.90;99.90;;;;;;4996646;28;20027;-49
2023/07/25 03:00:29;;;;;;;4.50;2.15;;;13.90;99.90;;;;;;4996494;28;20030;-52
2023/07/25 03:02:55;;;;;;;4.68;2.00;;;13.90;99.90;;;;;;4997001;28;20030;-51
2023/07/25 03:05:21;;;;;;;3.42;2.00;;;14.00;99.90;;;;;;4997674;28;20022;-50
2023/07/25 03:07:47;;;;;;;5.65;2.38;;;14.00;99.90;;;;;;4996121;28;20104;-50
2023/07/25 03:10:12;;;;;;;3.75;2.00;;;14.00;99.90;;;;;;4997393;28;20022;-51
2023/07/25 03:12:38;;;;;;;4.80;1.85;;;14.00;99.90;;;;;;4995994;28;20061;-53
2023/07/25 03:15:04;;;;;;;4.32;1.90;;;14.10;99.90;;;;;;4995708;28;20026;-51
2023/07/25 03:17:30;;;;;;;3.42;2.10;;;14.10;99.90;;;;;;4995512;28;20030;-53
2023/07/25 03:19:56;;;;;;;3.63;1.77;;;14.10;99.90;;;;;;4997650;28;20031;-51
2023/07/25 03:22:22;;;;;;;4.68;2.47;;;14.10;99.90;;;;;;4995872;28;20030;-49
2023/07/25 03:24:48;;;;;;;4.75;1.85;;;14.20;99.90;;;;;;4997021;28;20399;-52
2023/07/25 03:27:16;;;;;;;4.10;1.75;;;14.10;99.90;;;;;;4996052;28;20487;-51
2023/07/25 03:29:41;;;;;;;6.00;1.95;;;14.20;99.90;;;;;;4995739;28;20030;-53
2023/07/25 03:32:07;;;;;;;5.22;2.00;;;14.20;99.90;;;;;;4995464;28;20402;-52
2023/07/25 03:34:33;;;;;;;5.60;2.85;;;14.20;99.90;;;;;;4995939;28;20030;-52
2023/07/25 03:36:58;;;;;;;7.95;2.17;;;14.20;99.90;;;;;;4995455;28;20042;-53
2023/07/25 03:39:24;;;;;;;7.40;2.70;;;14.20;99.90;;;;;;4995719;28;20049;-53
2023/07/25 03:41:50;;;;;;;8.18;2.45;;;14.10;99.90;;;;;;4997164;28;20483;-53
2023/07/25 03:44:17;;;;;;;5.22;1.92;;;14.10;99.90;;;;;;4996509;28;20121;-53
2023/07/25 03:46:44;;;;;;;2.92;1.90;;;14.00;99.90;;;;;;4995726;28;20046;-51
2023/07/25 03:49:10;;;;;;;6.38;2.35;;;14.00;99.90;;;;;;4996940;28;20033;-53
2023/07/25 03:51:36;;;;;;;4.03;2.10;;;14.00;99.90;;;;;;4995505;28;20045;-51
2023/07/25 03:54:03;;;;;;;5.13;2.22;;;14.00;99.90;;;;;;4996177;28;20046;-52
2023/07/25 03:56:29;;;;;;;4.30;2.17;;;14.00;99.90;;;;;;4994981;28;20468;-53
2023/07/25 03:58:54;;;;;;;4.85;2.15;;;14.00;99.90;;;;;;4994782;28;20026;-52
2023/07/25 04:01:20;;;;;;;3.72;2.10;;;14.00;99.90;;;;;;4994861;28;20085;-50
2023/07/25 04:03:46;;;;;;;3.28;1.80;;;14.00;99.90;;;;;;4995781;28;20042;-53
2023/07/25 04:06:11;;;;;;;7.50;2.00;;;14.10;99.90;;;;;;4995996;28;20023;-54
2023/07/25 04:08:37;;;;;;;6.22;2.10;;;14.10;99.90;;;;;;4994813;28;20050;-52
2023/07/25 04:11:03;;;;;;;8.45;2.22;;;14.10;99.90;;;;;;4996125;28;20102;-51
2023/07/25 04:13:29;;;;;;;3.33;1.70;;;14.10;99.90;;;;;;4995302;28;20065;-53
2023/07/25 04:15:54;;;;;;;7.45;2.65;;;14.10;99.90;;;;;;4994487;28;20050;-53
2023/07/25 04:18:20;;;;;;;3.90;1.65;;;14.10;99.90;;;;;;4994680;28;20045;-52
2023/07/25 04:20:45;;;;;;;4.13;1.73;;;14.10;99.90;;;;;;4994822;28;20034;-53
2023/07/25 04:23:11;;;;;;;4.38;1.95;;;14.10;99.90;;;;;;4994445;28;20027;-53
2023/07/25 04:25:37;;;;;;;3.58;1.80;;;14.20;99.90;;;;;;4996287;28;20517;-50
2023/07/25 04:28:03;;;;;;;5.45;2.00;;;14.20;99.90;;;;;;4996359;28;20386;-52
2023/07/25 04:30:28;;;;;;;2.58;1.73;;;14.10;99.90;;;;;;4996095;28;20526;-50
2023/07/25 04:32:54;;;;;;;4.35;1.90;;;14.10;99.90;;;;;;4994469;28;20370;-48
2023/07/25 04:35:19;;;;;;;3.78;1.83;;;14.00;99.90;;;;;;4994572;28;20483;-53
2023/07/25 04:37:45;;;;;;;3.05;1.90;;;14.00;99.90;;;;;;4996139;28;20282;-51
2023/07/25 04:40:11;;;;;;;6.18;1.88;;;14.00;99.90;;;;;;4995676;28;20088;-53
2023/07/25 04:42:37;;;;;;;5.40;2.33;;;14.00;99.90;;;;;;4994315;28;20034;-48
2023/07/25 04:45:03;;;;;;;3.70;1.90;;;14.00;99.90;;;;;;4994250;28;20398;-52
2023/07/25 04:47:29;;;;;;;4.35;1.50;;;14.00;99.90;;;;;;4994169;28;20031;-53
2023/07/25 04:49:54;;;;;;;5.05;1.85;;;14.10;99.90;;;;;;4993744;28;20031;-51
2023/07/25 04:52:20;;;;;;;3.70;1.77;;;14.10;99.90;;;;;;4993047;28;20033;-52
2023/07/25 04:54:46;;;;;;;3.45;1.80;;;14.10;99.90;;;;;;4993459;28;20030;-52
2023/07/25 04:57:11;;;;;;;3.78;1.58;;;14.10;99.90;;;;;;4993880;28;20038;-54
2023/07/25 04:59:37;;;;;;;6.10;2.00;;;14.10;99.90;;;;;;4994049;28;20030;-51
2023/07/25 05:02:03;;;;;;;4.13;1.77;;;14.10;99.90;;;;;;4995348;28;20117;-51
2023/07/25 05:04:28;;;;;;;4.55;2.08;;;14.10;99.90;;;;;;4994027;28;20066;-51
2023/07/25 05:06:54;;;;;;;5.13;1.60;;;14.20;99.90;;;;;;4995661;28;20062;-51
2023/07/25 05:09:20;;;;;;;5.78;1.98;;;14.10;99.90;;;;;;4995700;28;20037;-49
2023/07/25 05:11:51;;;;;;;5.57;1.70;;;14.20;99.90;;;;;;4993207;28;20030;-50
2023/07/25 05:14:17;;;;;;;5.82;2.05;;;14.20;99.90;;;;;;4993368;28;20117;-52
2023/07/25 05:16:43;;;;;;;5.28;1.88;;;14.30;99.90;;;;;;4993162;28;20035;-50
2023/07/25 05:19:08;;;;;;;3.25;1.70;;;14.30;99.90;;;;;;4994339;28;20045;-50
2023/07/25 05:21:34;;;;;;;6.95;1.90;;;14.40;99.90;;;;;;4994950;28;20057;-52
2023/07/25 05:24:00;;;;;;;7.13;2.40;;;14.60;99.90;;;;;;4994238;28;20050;-51
2023/07/25 05:26:25;;;;;;;5.72;2.00;;;14.70;99.90;;;;;;4994802;28;20109;-53
2023/07/25 05:28:51;;;;;;;7.13;1.98;;;14.70;99.90;;;;;;4994676;28;20030;-49
2023/07/25 05:31:17;;;;;;;3.67;1.75;;;14.80;99.90;;;;;;4994308;28;20053;-53
2023/07/25 05:33:43;;;;;;;4.47;2.00;;;14.90;99.90;;;;;;4993123;28;20041;-53
2023/07/25 05:36:08;;;;;;;5.20;1.83;;;14.90;99.90;;;;;;4994808;28;20034;-48
2023/07/25 05:38:34;;;;;;;4.85;1.65;;;14.90;99.90;;;;;;4993486;28;20034;-50
2023/07/25 05:41:00;;;;;;;3.45;1.30;;;15.00;99.90;;;;;;4994509;28;20041;-53
2023/07/25 05:43:25;;;;;;;6.45;1.58;;;15.00;99.90;;;;;;4994338;28;20115;-53
2023/07/25 05:45:51;;;;;;;3.83;1.35;;;15.20;99.90;;;;;;4994251;28;20218;-52
2023/07/25 05:48:17;;;;;;;3.55;1.10;;;15.30;99.90;;;;;;4994763;28;20049;-53
2023/07/25 05:50:42;;;;;;;3.53;1.40;;;15.40;99.90;;;;;;4994003;28;20022;-53
2023/07/25 05:53:08;;;;;;;13.15;1.80;;;15.50;99.90;;;;;;4993811;28;20201;-53
2023/07/25 05:55:34;;;;;;;5.90;1.30;;;15.70;99.90;;;;;;4994393;28;20246;-54
2023/07/25 05:57:59;;;;;;;4.00;1.20;;;15.80;99.90;;;;;;4994549;28;20057;-54
2023/07/25 06:00:25;;;;;;;3.45;1.27;;;15.80;99.90;;;;;;4994086;28;20038;-53
2023/07/25 06:02:51;;;;;;;4.97;1.55;;;15.90;99.90;;;;;;4993553;28;20040;-54
2023/07/25 06:05:17;;;;;;;7.75;1.73;;;15.80;99.90;;;;;;4993964;28;20022;-53
2023/07/25 06:07:43;;;;;;;4.30;1.42;;;15.80;99.90;;;;;;4993901;28;20526;-52
2023/07/25 06:10:09;;;;;;;1.67;0.73;;;15.80;99.90;;;;;;4994190;28;20034;-50
2023/07/25 06:12:34;;;;;;;6.47;1.65;;;15.70;99.90;;;;;;4994046;28;20494;-54
2023/07/25 06:15:00;;;;;;;4.50;1.42;;;15.70;99.90;;;;;;4995814;28;20034;-53
2023/07/25 06:17:26;;;;;;;1.80;1.10;;;15.70;99.90;;;;;;4998448;28;20046;-52
2023/07/25 06:19:51;;;;;;;3.38;1.25;;;15.70;99.90;;;;;;4998025;28;20108;-53
2023/07/25 06:22:18;;;;;;;1.80;0.90;;;15.70;99.90;;;;;;4997395;28;20129;-54
2023/07/25 06:24:43;;;;;;;4.93;1.52;;;15.60;99.90;;;;;;4997472;28;20054;-53
2023/07/25 06:27:10;;;;;;;3.50;1.00;;;15.60;99.90;;;;;;4997808;28;20445;-52
2023/07/25 06:29:35;;;;;;;7.53;1.25;;;15.60;99.90;;;;;;4998175;28;20105;-52
2023/07/25 06:32:01;;;;;;;3.08;1.35;;;15.70;99.90;;;;;;4997634;28;20027;-51
2023/07/25 06:34:26;;;;;;;3.90;1.40;;;15.70;99.90;;;;;;4997265;28;20035;-51
2023/07/25 06:36:55;;;;;;;6.28;1.30;;;15.70;99.90;;;;;;4997879;28;20026;-54
2023/07/25 06:39:21;;;;;;;4.07;1.38;;;15.80;99.90;;;;;;4998096;28;20026;-53
2023/07/25 06:41:46;;;;;;;5.82;1.40;;;15.90;99.90;;;;;;4997836;28;20260;-54
2023/07/25 06:44:19;;;;;;;3.75;1.05;;;15.90;99.90;;;;;;4996128;28;20061;-53
2023/07/25 06:46:44;;;;;;;5.28;1.48;;;16.10;99.90;;;;;;4996665;28;20030;-54
2023/07/25 06:49:10;;;;;;;4.82;1.40;;;16.20;99.90;;;;;;4997751;28;20399;-54
2023/07/25 06:51:35;;;;;;;4.68;1.30;;;16.30;99.90;;;;;;4996050;28;20034;-53
2023/07/25 06:54:01;;;;;;;3.55;1.20;;;16.40;99.90;;;;;;4996041;28;20121;-52
2023/07/25 06:56:27;;;;;;;4.68;1.63;;;16.70;99.90;;;;;;4997618;28;20034;-55
2023/07/25 06:58:52;;;;;;;6.53;1.30;;;16.90;99.90;;;;;;4997862;28;20026;-50
2023/07/25 07:01:18;;;;;;;5.07;1.10;;;17.00;99.90;;;;;;4997641;28;20070;-53
2023/07/25 07:03:43;;;;;;;7.30;1.45;;;17.20;99.90;;;;;;4997092;28;20039;-51
2023/07/25 07:06:09;;;;;;;3.42;1.30;;;17.30;99.90;;;;;;4997753;28;20031;-53
2023/07/25 07:08:35;;;;;;;3.75;1.13;;;17.40;99.90;;;;;;4997675;28;20027;-51
2023/07/25 07:11:00;;;;;;;5.88;1.10;;;17.60;99.90;;;;;;4996643;28;20041;-55
2023/07/25 07:13:27;;;;;;;2.13;0.90;;;17.70;99.90;;;;;;4996665;28;20506;-51
2023/07/25 07:15:53;;;;;;;3.00;1.13;;;17.90;99.90;;;;;;4997615;28;20101;-53
2023/07/25 07:18:19;;;;;;;4.43;1.02;;;17.90;99.90;;;;;;4997825;28;20046;-55
2023/07/25 07:20:48;;;;;;;6.72;1.48;;;18.00;99.90;;;;;;4997607;28;20027;-53
2023/07/25 07:23:14;;;;;;;5.03;1.67;;;18.10;99.90;;;;;;4996591;28;20038;-49
2023/07/25 07:25:41;;;;;;;5.57;1.90;;;18.10;99.90;;;;;;4997659;28;20037;-50
2023/07/25 07:28:07;;;;;;;6.75;2.15;;;18.20;99.90;;;;;;4996763;28;20165;-53
2023/07/25 07:30:32;;;;;;;4.78;1.73;;;18.20;99.90;;;;;;4996925;28;20062;-53
2023/07/25 07:32:58;;;;;;;5.22;2.00;;;18.10;99.90;;;;;;4996741;28;20040;-53
2023/07/25 07:35:24;;;;;;;5.47;2.17;;;18.10;99.90;;;;;;4996954;28;20034;-50
2023/07/25 07:37:50;;;;;;;5.55;2.90;;;17.90;99.90;;;;;;4995450;28;20210;-50
2023/07/25 07:40:15;;;;;;;8.20;2.67;;;17.80;99.90;;;;;;4995782;28;20045;-52
2023/07/25 07:42:41;;;;;;;5.28;2.58;;;17.80;99.90;;;;;;4996449;28;20039;-53
2023/07/25 07:45:07;;;;;;;6.30;1.95;;;17.80;99.90;;;;;;4996872;28;20062;-52
2023/07/25 07:47:33;;;;;;;6.40;3.13;;;17.70;99.90;;;;;;4995496;28;20027;-52
2023/07/25 07:49:59;;;;;;;9.25;2.72;;;17.80;99.90;;;;;;4996861;28;20116;-55
2023/07/25 07:52:25;;;;;;;8.15;3.40;;;17.70;99.90;;;;;;4996006;28;20050;-54
2023/07/25 07:54:51;;;;;;;8.63;3.95;;;17.70;99.90;;;;;;4996815;28;20030;-53
2023/07/25 07:57:16;;;;;;;7.00;2.90;;;17.70;99.90;;;;;;4996650;28;20081;-49
2023/07/25 07:59:43;;;;;;;6.75;2.67;;;17.60;99.90;;;;;;4996790;28;20034;-50
2023/07/25 08:02:09;;;;;;;6.32;2.33;;;17.50;99.90;;;;;;4996632;28;20096;-50
2023/07/25 08:04:35;;;;;;;4.97;2.45;;;17.50;99.90;;;;;;4996235;28;20030;-50
2023/07/25 08:07:00;;;;;;;3.80;2.20;;;17.50;99.90;;;;;;4996812;28;20472;-51
2023/07/25 08:09:26;;;;;;;8.23;2.47;;;17.50;99.90;;;;;;4996116;28;20041;-49
2023/07/25 08:11:51;;;;;;;4.55;2.03;;;17.40;99.90;;;;;;4996122;28;20033;-51
2023/07/25 08:14:17;;;;;;;6.22;2.85;;;17.40;99.90;;;;;;4995916;28;20034;-50
2023/07/25 08:16:43;;;;;;;9.05;2.95;;;17.40;99.90;;;;;;4996800;28;20072;-50
2023/07/25 08:19:08;;;;;;;7.28;2.30;;;17.40;99.90;;;;;;4996663;28;20061;-49
2023/07/25 08:21:34;;;;;;;6.97;1.92;;;17.40;99.90;;;;;;4996126;28;20506;-50
2023/07/25 08:23:59;;;;;;;5.88;1.83;;;17.40;99.90;;;;;;4996517;28;20037;-51
2023/07/25 08:26:25;;;;;;;5.95;1.83;;;17.60;99.90;;;;;;4995920;28;20038;-49
2023/07/25 08:28:51;;;;;;;3.88;1.60;;;17.60;99.90;;;;;;4996055;28;20367;-51
2023/07/25 08:31:16;;;;;;;2.65;1.05;;;17.60;99.90;;;;;;4995887;28;20058;-52
2023/07/25 08:33:44;;;;;;;5.18;1.42;;;17.70;99.90;;;;;;4995843;28;20057;-50
2023/07/25 08:36:10;;;;;;;5.20;1.30;;;17.70;99.90;;;;;;4996154;28;20038;-50
2023/07/25 08:38:37;;;;;;;7.97;2.15;;;17.80;99.90;;;;;;4995086;28;20128;-55
2023/07/25 08:41:10;;;;;;;4.22;1.35;;;17.80;99.90;;;;;;4995448;28;20038;-54
2023/07/25 08:43:38;;;;;;;3.80;1.25;;;17.80;99.90;;;;;;4994688;28;20410;-52
2023/07/25 08:46:09;;;;;;;5.45;1.13;;;17.80;99.90;;;;;;4995460;28;20272;-55
2023/07/25 08:48:42;;;;;;;2.40;0.93;;;17.90;99.90;;;;;;4994353;28;20042;-53
2023/07/25 08:51:14;;;;;;;5.07;1.35;;;17.90;99.90;;;;;;4995084;28;20085;-51
2023/07/25 08:53:51;;;;;;;5.30;1.63;;;17.90;99.90;;;;;;4995122;28;20026;-49
2023/07/25 08:56:17;;;;;;;4.32;2.03;;;17.90;99.90;;;;;;4993068;28;20451;-53
2023/07/25 08:58:44;;;;;;;8.75;1.80;;;17.90;99.90;;;;;;4993375;28;20117;-54
2023/07/25 09:01:10;;;;;;;6.05;1.90;;;17.80;99.90;;;;;;4994987;28;20034;-51
2023/07/25 09:03:38;;;;;;;4.18;2.05;;;17.90;99.90;;;;;;4993185;28;20088;-53
2023/07/25 09:06:06;;;;;;;7.00;1.98;;;17.90;99.90;;;;;;4994888;28;20475;-54
2023/07/25 09:08:32;;;;;;;3.42;1.40;;;17.90;99.90;;;;;;4994673;28;20084;-54
2023/07/25 09:10:59;;;;;;;6.85;1.33;;;17.80;99.90;;;;;;4995037;28;20077;-55
2023/07/25 09:13:24;;;;;;;2.47;1.10;;;17.80;99.90;;;;;;4994257;28;20458;-54
2023/07/25 09:15:50;;;;;;;2.67;1.38;;;17.80;99.90;;;;;;4994614;28;20049;-52
2023/07/25 09:18:16;;;;;;;4.35;1.30;;;17.80;99.90;;;;;;4994822;28;20034;-53
2023/07/25 09:20:41;;;;;;;2.15;0.93;;;17.80;99.90;;;;;;4993191;28;20042;-55
2023/07/25 09:23:07;;;;;;;3.75;1.00;;;17.90;99.90;;;;;;4994591;28;20053;-53
2023/07/25 09:25:33;;;;;;;3.30;1.30;;;17.90;99.90;;;;;;4993295;28;20117;-54
2023/07/25 09:27:59;;;;;;;4.30;1.58;;;17.90;99.90;;;;;;4994185;28;20253;-50
2023/07/25 09:30:27;;;;;;;4.20;1.60;;;17.90;99.90;;;;;;4994134;28;20034;-51
2023/07/25 09:32:53;;;;;;;5.30;1.60;;;17.80;99.90;;;;;;4994429;28;20460;-53
2023/07/25 09:35:22;;;;;;;5.43;1.80;;;17.80;99.90;;;;;;4994567;28;20481;-54
2023/07/25 09:37:54;;;;;;;4.28;1.58;;;17.70;99.90;;;;;;4994958;28;20483;-52
2023/07/25 09:40:20;;;;;;;5.90;2.03;;;17.70;99.90;;;;;;4994238;28;20026;-49
2023/07/25 09:42:50;;;;;;;6.20;2.35;;;17.60;99.90;;;;;;4994052;28;20030;-52
2023/07/25 09:45:16;;;;;;;5.55;1.70;;;17.50;99.90;;;;;;4994386;28;20104;-52
2023/07/25 09:47:42;;;;;;;3.70;1.95;;;17.50;99.90;;;;;;4993582;28;20438;-53
2023/07/25 09:50:08;;;;;;;7.43;1.90;;;17.50;99.90;;;;;;4993335;28;20030;-53
2023/07/25 09:52:41;;;;;;;4.78;1.63;;;17.50;99.90;;;;;;4993756;28;20078;-50
2023/07/25 09:55:07;;;;;;;5.90;1.80;;;17.40;99.90;;;;;;4994059;28;20034;-55
2023/07/25 09:57:34;;;;;;;6.47;1.70;;;17.40;99.90;;;;;;4994599;28;20041;-49
2023/07/25 10:00:00;;;;;;;4.07;1.33;;;17.40;99.90;;;;;;4994518;28;20037;-55
2023/07/25 10:02:26;;;;;;;6.20;1.45;;;17.40;99.90;;;;;;4994025;28;20030;-54
2023/07/25 10:04:55;;;;;;;5.35;1.55;;;17.50;99.90;;;;;;4993862;28;20497;-53
2023/07/25 10:07:23;;;;;;;;;;;17.50;99.90;;;;;;4993704;28;20517;-53
2023/07/25 10:09:51;;;;;;;3.45;1.15;;;17.50;99.90;;;;;;4993886;28;19910;-55
2023/07/25 10:12:16;;;;;;;3.15;1.10;;;17.40;99.90;;;;;;4993776;28;20073;-53
2023/07/25 10:14:42;;;;;;;4.55;1.40;;;17.30;99.90;;;;;;4992004;28;20066;-52
2023/07/25 10:17:08;;;;;;;2.13;1.10;;;17.20;99.90;;;;;;4994309;28;20062;-53
2023/07/25 10:19:51;;;;;;;5.75;1.20;;;17.00;99.90;;;;;;4994339;28;20026;-53
2023/07/25 10:22:31;;;;;;;3.05;1.15;;;16.90;99.90;;;;;;4993822;28;20482;-54
2023/07/25 10:24:56;;;;;;;1.58;0.80;;;16.90;99.90;;;;;;4994306;28;20034;-54
2023/07/25 10:27:22;;;;;;;2.20;0.90;;;16.90;99.90;;;;;;4994338;28;20038;-53
2023/07/25 10:29:49;;;;;;;3.10;0.90;;;16.90;99.90;;;;;;4994087;28;20092;-51
2023/07/25 10:32:16;;;;;;;1.42;0.70;;;16.90;99.90;;;;;;4993769;28;20022;-52
2023/07/25 10:34:45;;;;;;;3.60;0.90;;;16.90;99.90;;;;;;4994227;28;20027;-54
2023/07/25 10:37:30;;;;;;;5.15;1.20;;;17.00;99.90;;;;;;4994237;28;20034;-53
2023/07/25 10:40:10;;;;;;;2.95;0.98;;;17.00;99.90;;;;;;4994000;28;20449;-55
2023/07/25 10:42:52;;;;;;;3.63;1.08;;;17.20;99.90;;;;;;4993748;28;20045;-55
2023/07/25 10:45:22;;;;;;;2.35;1.08;;;17.30;99.90;;;;;;4993744;28;20037;-55
2023/07/25 10:47:49;;;;;;;3.10;1.30;;;17.40;99.90;;;;;;4993757;28;20391;-54
2023/07/25 10:50:43;;;;;;;4.35;1.20;;;17.50;99.90;;;;;;4992935;28;20061;-55
2023/07/25 10:53:24;;;;;;;3.55;1.30;;;17.50;99.90;;;;;;4992827;28;20493;-55
2023/07/25 10:56:06;;;;;;;6.75;1.50;;;17.50;99.90;;;;;;4993587;28;20038;-55
2023/07/25 10:58:33;;;;;;;5.97;1.42;;;17.40;99.90;;;;;;4993460;28;20034;-52
2023/07/25 11:01:00;;;;;;;4.75;2.25;;;17.30;99.90;;;;;;4994977;28;20037;-53
2023/07/25 11:03:34;;;;;;;3.25;1.15;;;17.20;99.90;;;;;;4996713;28;20129;-51
2023/07/25 11:06:08;;;;;;;7.35;3.53;;;17.10;99.90;;;;;;4997561;28;20030;-54
2023/07/25 11:08:34;;;;;;;3.40;1.30;;;17.00;99.90;;;;;;4996754;28;20030;-53
2023/07/25 11:11:05;;;;;;;3.70;1.20;;;17.00;99.90;;;;;;4997235;28;20033;-50
2023/07/25 11:13:32;;;;;;;8.73;2.00;;;16.90;99.90;;;;;;4997008;28;20026;-52
2023/07/25 11:16:01;;;;;;;4.82;1.50;;;16.70;99.90;;;;;;4997534;28;20499;-54
2023/07/25 11:18:27;;;;;;;11.38;1.40;;;16.60;99.90;;;;;;4997431;28;20530;-54
2023/07/25 11:20:59;;;;;;;4.28;1.13;;;16.60;99.90;;;;;;4997100;28;20117;-51
2023/07/25 11:23:25;;;;;;;5.90;1.58;;;16.60;99.90;;;;;;4996406;28;20054;-51
2023/07/25 11:25:58;;;;;;;5.13;1.58;;;16.50;99.90;;;;;;4997227;28;20537;-52
2023/07/25 11:28:25;;;;;;;4.35;1.50;;;16.60;99.90;;;;;;4996861;23;20090;-54
2023/07/25 11:30:55;;;;;;;2.53;1.27;;;16.60;99.90;;;;;;4974561;28;20211;-53
2023/07/25 11:33:21;;;;;;;6.57;1.50;;;16.60;99.90;;;;;;4973834;28;20101;-51
2023/07/25 11:35:54;;;;;;;5.50;1.55;;;16.70;99.90;;;;;;4974405;28;20504;-52
2023/07/25 11:38:20;;;;;;;4.57;1.30;;;16.80;99.90;;;;;;4974501;28;20038;-54
2023/07/25 11:40:56;;;;;;;3.30;1.23;;;16.80;99.90;;;;;;4974651;28;20238;-53
2023/07/25 11:43:22;;;;;;;2.70;1.08;;;16.90;99.90;;;;;;4973966;28;20141;-51
2023/07/25 11:45:48;;;;;;;4.43;1.30;;;17.00;99.90;;;;;;4974419;28;20511;-53
2023/07/25 11:48:18;;;;;;;5.95;1.42;;;17.00;99.90;;;;;;4974184;28;20033;-51
2023/07/25 11:50:48;;;;;;;4.53;1.40;;;17.10;99.90;;;;;;4974158;28;20435;-54
2023/07/25 11:53:15;;;;;;;6.45;1.33;;;17.20;99.90;;;;;;4973504;28;20391;-53
2023/07/25 11:55:41;;;;;;;4.13;1.00;;;17.20;99.90;;;;;;4974113;28;20447;-51
2023/07/25 11:58:07;;;;;;;3.47;1.20;;;17.30;99.90;;;;;;4974154;28;20042;-55
2023/07/25 12:00:39;;;;;;;2.63;1.08;;;17.40;99.90;;;;;;4973979;28;20057;-52
2023/07/25 12:03:21;;;;;;;3.47;1.33;;;17.60;99.90;;;;;;4973726;28;20033;-50
2023/07/25 12:06:01;;;;;;;3.85;1.60;;;17.60;99.90;;;;;;4973885;28;20031;-51
2023/07/25 12:08:40;;;;;;;1.92;0.70;;;17.70;99.90;;;;;;4973849;28;20081;-52
2023/07/25 12:11:10;;;;;;;2.72;1.00;;;17.90;99.90;;;;;;4973584;28;20034;-53
2023/07/25 12:13:46;;;;;;;5.40;1.13;;;18.10;99.90;;;;;;4972518;28;20046;-54
2023/07/25 12:16:31;;;;;;;2.40;1.15;;;18.20;99.90;;;;;;4973793;28;20045;-53
2023/07/25 12:18:59;;;;;;;2.22;0.98;;;18.30;99.90;;;;;;4972593;28;20050;-55
2023/07/25 12:21:30;;;;;;;4.10;0.82;;;18.40;99.90;;;;;;4973407;28;20601;-52
2023/07/25 12:24:02;;;;;;;4.07;1.10;;;18.50;99.90;;;;;;4973285;28;20038;-51
2023/07/25 12:26:28;;;;;;;2.45;0.93;;;18.60;99.90;;;;;;4973607;28;20038;-55
2023/07/25 12:28:54;;;;;;;2.17;0.70;;;18.70;99.90;;;;;;4973394;28;20499;-55
2023/07/25 12:31:21;;;;;;;3.17;0.70;;;18.80;99.90;;;;;;4973035;28;20070;-54
2023/07/25 12:33:49;;;;;;;0.70;0.70;;;18.80;99.90;;;;;;4987904;28;20046;-56
2023/07/25 12:36:17;;;;;;;3.97;0.70;;;18.90;99.90;;;;;;4973349;28;20050;-55
2023/07/25 12:38:43;;;;;;;2.88;1.25;;;19.00;99.90;;;;;;4973425;28;20026;-50
2023/07/25 12:41:09;;;;;;;3.20;0.70;;;19.10;99.90;;;;;;4973361;28;20498;-53
2023/07/25 12:43:35;;;;;;;3.50;0.73;;;19.10;99.90;;;;;;4972696;28;20042;-54
2023/07/25 12:46:01;;;;;;;2.75;0.70;;;19.20;99.90;;;;;;4973205;28;20476;-51